createdAt,value
2018-09-08T00:03:37.122Z,12.23
2018-09-08T00:09:09.600Z,10.93
2018-09-08T00:14:38.200Z,12.40
2018-09-08T00:20:12.608Z,10.27
2018-09-08T00:25:47.102Z,9.70
2018-09-08T00:31:17.882Z,9.80
2018-09-08T00:36:47.345Z,9.55
2018-09-08T00:42:18.775Z,10.00
2018-09-08T00:47:47.972Z,9.43
2018-09-08T00:53:17.213Z,9.93
2018-09-08T00:58:51.651Z,9.40
2018-09-08T01:04:20.863Z,10.35
2018-09-08T01:09:51.106Z,10.00
2018-09-08T01:15:20.332Z,8.60
2018-09-08T01:20:49.591Z,9.17
2018-09-08T01:26:19.524Z,9.07
2018-09-08T01:31:48.739Z,8.47
2018-09-08T01:37:17.953Z,9.00
2018-09-08T01:43:01.835Z,8.03
2018-09-08T01:48:31.084Z,7.93
2018-09-08T01:54:00.287Z,8.50
2018-09-08T01:59:34.192Z,8.00
2018-09-08T02:05:03.453Z,8.20
2018-09-08T02:10:33.699Z,8.30
2018-09-08T02:16:02.919Z,7.43
2018-09-08T02:21:32.161Z,8.20
2018-09-08T02:27:01.460Z,7.85
2018-09-08T02:32:31.472Z,7.97
2018-09-08T02:38:00.663Z,7.60
2018-09-08T02:43:29.844Z,8.50
2018-09-08T02:48:59.063Z,8.38
2018-09-08T02:54:26.716Z,8.63
2018-09-08T02:59:54.335Z,9.28
2018-09-08T03:05:23.251Z,9.43
2018-09-08T03:10:50.865Z,9.55
2018-09-08T03:16:18.826Z,9.27
2018-09-08T03:21:47.742Z,9.55
2018-09-08T03:27:15.379Z,8.63
2018-09-08T03:32:43.013Z,9.43
2018-09-08T03:38:10.629Z,9.40
2018-09-08T03:43:38.299Z,9.87
2018-09-08T03:49:05.940Z,8.20
2018-09-08T03:54:33.551Z,9.50
2018-09-08T04:00:01.226Z,9.97
2018-09-08T04:05:30.468Z,8.93
2018-09-08T04:10:59.770Z,9.27
2018-09-08T04:16:28.962Z,9.30
2018-09-08T04:21:58.163Z,10.30
2018-09-08T04:27:27.360Z,9.33
2018-09-08T04:32:56.696Z,8.75
2018-09-08T04:38:25.878Z,9.65
2018-09-08T04:43:55.114Z,9.05
2018-09-08T04:49:24.338Z,8.90
2018-09-08T04:54:53.688Z,9.67
2018-09-08T05:00:22.867Z,8.97
2018-09-08T05:06:06.353Z,9.33
2018-09-08T05:11:35.725Z,9.38
2018-09-08T05:17:05.060Z,9.20
2018-09-08T05:22:34.376Z,8.80
2018-09-08T05:28:03.687Z,9.20
2018-09-08T05:33:32.962Z,8.77
2018-09-08T05:39:02.284Z,9.07
2018-09-08T05:44:31.485Z,9.23
2018-09-08T05:50:00.764Z,10.00
2018-09-08T05:55:30.369Z,8.90
2018-09-08T06:00:59.634Z,9.60
2018-09-08T06:06:29.328Z,8.90
2018-09-08T06:11:58.774Z,9.47
2018-09-08T06:17:30.369Z,9.53
2018-09-08T06:23:00.123Z,12.80
2018-09-08T06:28:29.562Z,9.80
2018-09-08T06:34:03.631Z,10.65
2018-09-08T06:39:32.884Z,7.63
2018-09-08T06:45:07.688Z,8.70
2018-09-08T06:50:38.092Z,7.27
2018-09-08T06:56:08.160Z,6.30
2018-09-08T07:01:37.589Z,7.00
2018-09-08T07:07:11.628Z,7.87
2018-09-08T07:12:41.012Z,5.63
2018-09-08T07:18:10.665Z,5.57
2018-09-08T07:23:40.178Z,5.47
2018-09-08T07:29:09.711Z,4.43
2018-09-08T07:34:39.498Z,4.77
2018-09-08T07:40:11.376Z,4.17
2018-09-08T07:45:41.906Z,4.70
2018-09-08T07:51:11.479Z,4.60
2018-09-08T07:56:41.556Z,4.87
2018-09-08T08:02:10.928Z,4.07
2018-09-08T08:07:43.361Z,4.70
2018-09-08T08:13:13.023Z,4.90
2018-09-08T08:18:42.372Z,8.50
2018-09-08T08:24:11.889Z,5.00
2018-09-08T08:29:41.561Z,4.47
2018-09-08T08:35:13.885Z,4.00
2018-09-08T08:40:44.660Z,4.30
2018-09-08T08:46:15.020Z,3.57
2018-09-08T08:52:02.421Z,3.80
2018-09-08T08:57:32.340Z,4.23
2018-09-08T09:03:03.400Z,4.03
2018-09-08T09:08:34.783Z,4.27
2018-09-08T09:14:05.763Z,4.07
2018-09-08T09:19:52.163Z,4.47
2018-09-08T09:25:22.533Z,4.47
2018-09-08T09:30:56.643Z,4.47
2018-09-08T09:36:25.975Z,5.03
2018-09-08T09:41:55.285Z,4.27
2018-09-08T09:47:24.667Z,4.17
2018-09-08T09:52:54.184Z,4.50
2018-09-08T09:58:23.471Z,4.40
2018-09-08T10:03:52.783Z,4.77
2018-09-08T10:09:22.523Z,6.40
2018-09-08T10:14:51.944Z,4.97
2018-09-08T10:20:23.361Z,5.10
2018-09-08T10:25:53.052Z,4.47
2018-09-08T10:31:29.951Z,6.63
2018-09-08T10:37:01.798Z,4.70
2018-09-08T10:42:31.172Z,4.73
2018-09-08T10:48:00.736Z,4.07
2018-09-08T10:53:30.027Z,5.10
2018-09-08T10:59:00.002Z,4.67
2018-09-08T11:04:30.064Z,4.90
2018-09-08T11:09:59.916Z,4.90
2018-09-08T11:15:30.061Z,5.33
2018-09-08T11:20:59.295Z,4.17
2018-09-08T11:26:28.571Z,4.40
2018-09-08T11:31:57.877Z,5.00
2018-09-08T11:37:27.104Z,5.05
2018-09-08T11:42:56.411Z,4.97
2018-09-08T11:48:31.876Z,4.40
2018-09-08T11:54:01.223Z,5.10
2018-09-08T11:59:30.699Z,4.40
2018-09-08T12:05:03.486Z,4.90
2018-09-08T12:10:32.772Z,4.50
2018-09-08T12:16:02.224Z,4.67
2018-09-08T12:21:31.579Z,3.87
2018-09-08T12:27:00.985Z,4.37
2018-09-08T12:32:30.249Z,4.10
2018-09-08T12:37:59.547Z,4.23
2018-09-08T12:43:28.883Z,4.73
2018-09-08T12:48:59.355Z,4.87
2018-09-08T12:54:28.641Z,4.40
2018-09-08T12:59:57.903Z,5.10
2018-09-08T13:05:27.196Z,4.47
2018-09-08T13:10:56.516Z,4.70
2018-09-08T13:16:25.830Z,3.83
2018-09-08T13:21:55.079Z,3.77
2018-09-08T13:27:24.397Z,4.00
2018-09-08T13:32:53.735Z,4.15
2018-09-08T13:38:23.107Z,3.70
2018-09-08T13:43:52.746Z,4.60
2018-09-08T13:49:23.196Z,3.65
2018-09-08T13:54:53.916Z,4.35
2018-09-08T14:00:24.311Z,3.83
2018-09-08T14:05:53.524Z,4.03
2018-09-08T14:11:22.784Z,4.37
2018-09-08T14:16:52.033Z,3.62
2018-09-08T14:22:21.275Z,3.20
2018-09-08T14:27:50.483Z,3.52
2018-09-08T14:33:19.735Z,4.10
2018-09-08T14:38:49.099Z,3.42
2018-09-08T14:44:18.376Z,3.27
2018-09-08T14:49:47.643Z,3.60
2018-09-08T14:55:16.990Z,3.08
2018-09-08T15:00:46.300Z,3.60
2018-09-08T15:06:15.735Z,3.45
2018-09-08T15:11:46.133Z,3.20
2018-09-08T15:17:15.871Z,3.60
2018-09-08T15:22:46.821Z,3.20
2018-09-08T15:28:16.385Z,4.08
2018-09-08T15:33:45.751Z,3.50
2018-09-08T15:39:15.000Z,3.72
2018-09-08T15:44:44.366Z,3.27
2018-09-08T15:50:13.886Z,3.98
2018-09-08T15:55:45.456Z,4.58
2018-09-08T16:01:14.697Z,3.80
2018-09-08T16:06:44.511Z,3.62
2018-09-08T16:12:14.660Z,3.83
2018-09-08T16:17:44.017Z,3.98
2018-09-08T16:23:13.343Z,3.90
2018-09-08T16:28:44.550Z,3.85
2018-09-08T16:34:13.903Z,3.52
2018-09-08T16:39:43.707Z,4.00
2018-09-08T16:45:12.996Z,4.22
2018-09-08T16:50:42.435Z,4.03
2018-09-08T16:56:11.900Z,3.45
2018-09-08T17:01:43.881Z,3.87
2018-09-08T17:07:13.325Z,4.17
2018-09-08T17:12:44.429Z,4.42
2018-09-08T17:18:14.908Z,4.97
2018-09-08T17:23:45.652Z,4.80
2018-09-08T17:29:14.960Z,4.35
2018-09-08T17:34:44.343Z,5.08
2018-09-08T17:40:13.812Z,4.55
2018-09-08T17:45:43.853Z,5.47
2018-09-08T17:51:13.314Z,4.72
2018-09-08T17:56:42.927Z,7.90
2018-09-08T18:02:12.215Z,9.45
2018-09-08T18:07:43.644Z,9.18
2018-09-08T18:13:13.058Z,10.68
2018-09-08T18:18:42.831Z,8.95
2018-09-08T18:24:12.796Z,8.53
2018-09-08T18:29:42.753Z,8.40
2018-09-08T18:35:12.415Z,9.30
2018-09-08T18:40:42.225Z,12.55
2018-09-08T18:46:11.755Z,13.13
2018-09-08T18:51:41.518Z,14.50
2018-09-08T18:57:13.197Z,13.03
2018-09-08T19:02:42.845Z,15.00
2018-09-08T19:08:12.596Z,11.35
2018-09-08T19:13:42.672Z,11.78
2018-09-08T19:19:13.729Z,11.08
2018-09-08T19:24:44.359Z,11.20
2018-09-08T19:30:13.829Z,11.10
2018-09-08T19:35:43.800Z,12.37
2018-09-08T19:41:13.386Z,12.95
2018-09-08T19:46:48.491Z,14.75
2018-09-08T19:52:23.407Z,13.58
2018-09-08T19:57:57.890Z,13.78
2018-09-08T20:03:27.457Z,15.13
2018-09-08T20:08:56.787Z,13.55
2018-09-08T20:14:30.450Z,14.00
2018-09-08T20:19:59.976Z,15.60
2018-09-08T20:25:29.332Z,14.53
2018-09-08T20:30:58.860Z,12.20
2018-09-08T20:36:28.364Z,11.68
2018-09-08T20:41:57.728Z,12.23
2018-09-08T20:47:28.159Z,11.15
2018-09-08T20:52:57.469Z,10.30
2018-09-08T20:58:27.017Z,10.15
2018-09-08T21:03:56.708Z,11.65
2018-09-08T21:09:26.384Z,11.03
2018-09-08T21:14:55.899Z,10.58
2018-09-08T21:20:25.359Z,10.35
2018-09-08T21:25:54.735Z,10.88
2018-09-08T21:31:24.141Z,10.85
2018-09-08T21:36:53.732Z,12.23
2018-09-08T21:42:23.366Z,11.28
2018-09-08T21:47:53.376Z,11.40
2018-09-08T21:53:22.957Z,11.55
2018-09-08T21:58:52.650Z,12.75
2018-09-08T22:04:22.287Z,12.50
2018-09-08T22:09:51.855Z,11.48
2018-09-08T22:15:21.314Z,12.55
2018-09-08T22:20:50.874Z,10.95
2018-09-08T22:26:20.448Z,11.53
2018-09-08T22:31:50.229Z,11.12
2018-09-08T22:37:19.507Z,11.12
2018-09-08T22:42:50.006Z,10.85
2018-09-08T22:48:19.308Z,10.50
2018-09-08T22:53:48.607Z,11.38
2018-09-08T22:59:17.919Z,10.82
2018-09-08T23:04:47.287Z,10.70
2018-09-08T23:10:16.631Z,11.28
2018-09-08T23:15:46.148Z,10.68
2018-09-08T23:21:15.620Z,11.03
2018-09-08T23:26:44.914Z,10.48
2018-09-08T23:32:15.154Z,10.48
2018-09-08T23:37:44.490Z,9.95
2018-09-08T23:43:13.857Z,10.78
2018-09-08T23:48:43.268Z,10.32
2018-09-08T23:54:12.824Z,10.40
2018-09-08T23:59:42.141Z,9.68
